Time;durP1;ratioP1;P1;durP2;ratioP2;P2;SDS_P1;SDS_P2;PMS_P1;PMS_P2;Temp;Humidity;BMP_temperature;BMP_pressure;BME280_temperature;BME280_humidity;BME280_pressure;Samples;Min_cycle;Max_cycle;Signal;HPM_P1;HPM_P2
2023/02/15 00:01:29;;;;;;;1999.90;999.90;;;3.00;99.90;;;;;;6749895;88;20263;-74
2023/02/15 00:21:34;;;;;;;1999.90;999.90;;;2.80;99.90;;;;;;6736218;88;20233;-81
2023/02/15 00:31:35;;;;;;;1999.90;999.90;;;2.70;99.90;;;;;;6736139;88;20201;-81
2023/02/15 00:41:36;;;;;;;1999.90;999.90;;;2.60;99.90;;;;;;6736701;88;20209;-80
2023/02/15 00:51:37;;;;;;;1999.90;999.90;;;2.40;99.90;;;;;;6737193;88;20189;-80
2023/02/15 01:01:37;;;;;;;1999.90;999.90;;;2.40;99.90;;;;;;6735360;88;20218;-81
2023/02/15 01:11:38;;;;;;;1999.90;999.90;;;2.30;99.90;;;;;;6718249;88;20190;-81
2023/02/15 01:21:40;;;;;;;1999.90;999.90;;;2.20;99.90;;;;;;6751400;88;20255;-81
2023/02/15 01:31:40;;;;;;;1999.90;999.90;;;2.30;99.90;;;;;;6751766;88;20193;-81
2023/02/15 01:41:41;;;;;;;1999.90;999.90;;;2.10;99.90;;;;;;6753253;88;20211;-80
2023/02/15 01:51:44;;;;;;;1999.90;999.90;;;2.10;99.90;;;;;;6754681;88;20740;-80
2023/02/15 02:01:45;;;;;;;1999.90;999.90;;;2.00;99.90;;;;;;6751303;88;20200;-80
2023/02/15 02:11:47;;;;;;;1999.90;999.90;;;2.00;99.90;;;;;;6751332;88;20197;-81
2023/02/15 02:22:25;;;;;;;1999.90;999.90;;;1.90;99.90;;;;;;6755771;88;20198;-81
2023/02/15 02:32:52;;;;;;;1999.90;999.90;;;1.80;99.90;;;;;;6755864;88;20183;-81
2023/02/15 02:43:10;;;;;;;1999.90;999.90;;;1.60;99.90;;;;;;6756337;88;20209;-80
2023/02/15 02:53:11;;;;;;;1999.90;999.90;;;1.50;99.90;;;;;;6757047;88;20161;-81
2023/02/15 03:03:20;;;;;;;1999.90;999.90;;;1.40;99.90;;;;;;6756970;88;20176;-80
2023/02/15 03:13:22;;;;;;;1999.90;999.90;;;1.30;99.90;;;;;;6758056;88;20245;-81
2023/02/15 03:23:26;;;;;;;1999.90;999.90;;;1.20;99.90;;;;;;6757463;88;20247;-81
2023/02/15 03:33:28;;;;;;;1999.90;999.90;;;1.20;99.90;;;;;;6753546;88;20212;-81
2023/02/15 03:43:47;;;;;;;1999.90;999.90;;;1.20;99.90;;;;;;6756510;88;20290;-81
2023/02/15 03:53:50;;;;;;;1999.90;999.90;;;1.20;99.90;;;;;;6755930;88;20201;-80
2023/02/15 04:04:08;;;;;;;1999.90;999.90;;;1.10;99.90;;;;;;6755395;88;20394;-81
2023/02/15 04:34:46;;;;;;;1999.90;999.90;;;1.00;99.90;;;;;;6756181;88;20193;-81
2023/02/15 04:44:47;;;;;;;1999.90;999.90;;;1.00;99.90;;;;;;6755818;88;20744;-80
2023/02/15 04:54:47;;;;;;;1999.90;999.90;;;1.00;99.90;;;;;;6757517;88;20551;-80
2023/02/15 05:04:48;;;;;;;1999.90;999.90;;;0.90;99.90;;;;;;6757193;88;20184;-81
2023/02/15 05:14:48;;;;;;;1999.90;999.90;;;0.90;99.90;;;;;;6758464;88;20173;-81
2023/02/15 05:35:12;;;;;;;1999.90;999.90;;;0.90;99.90;;;;;;6760955;88;20234;-81
2023/02/15 05:45:13;;;;;;;1999.90;999.90;;;0.90;99.90;;;;;;6759510;88;20243;-80
2023/02/15 05:55:13;;;;;;;1999.90;999.90;;;0.80;99.90;;;;;;6760052;88;20217;-81
2023/02/15 06:05:14;;;;;;;1999.90;999.90;;;0.80;99.90;;;;;;6759707;88;20540;-80
2023/02/15 06:15:14;;;;;;;1999.90;999.90;;;0.80;99.90;;;;;;6748543;78;20189;-76
2023/02/15 06:25:15;;;;;;;1999.90;999.90;;;0.70;99.90;;;;;;6729602;88;20642;-75
2023/02/15 06:35:16;;;;;;;1999.90;999.90;;;0.70;99.90;;;;;;6749642;88;20203;-76
2023/02/15 06:45:16;;;;;;;1999.90;999.90;;;0.70;99.90;;;;;;6728345;88;20352;-74
2023/02/15 06:55:17;;;;;;;1999.90;999.90;;;0.80;99.90;;;;;;6722510;88;20205;-75
2023/02/15 07:05:17;;;;;;;1999.90;999.90;;;0.80;99.90;;;;;;6727633;88;20345;-74
2023/02/15 07:15:22;;;;;;;1999.90;999.90;;;0.80;99.90;;;;;;6729994;88;20544;-75
2023/02/15 07:25:22;;;;;;;1999.90;999.90;;;0.80;99.90;;;;;;6727928;88;20206;-76
2023/02/15 07:35:23;;;;;;;1999.90;999.90;;;1.00;99.90;;;;;;6727925;88;20208;-76
2023/02/15 07:45:23;;;;;;;1999.90;999.90;;;1.10;99.90;;;;;;6729932;88;20244;-76
2023/02/15 07:55:24;;;;;;;1999.90;999.90;;;1.20;99.90;;;;;;6731198;88;20452;-75
2023/02/15 08:05:25;;;;;;;1999.90;999.90;;;1.40;99.90;;;;;;6730474;88;21097;-75
2023/02/15 08:15:25;;;;;;;1999.90;999.90;;;1.60;99.90;;;;;;6730573;88;20274;-75
2023/02/15 08:25:26;;;;;;;1999.90;999.90;;;1.80;99.90;;;;;;6730363;88;20727;-75
2023/02/15 08:35:26;;;;;;;1999.90;999.90;;;2.50;99.90;;;;;;6730554;88;20343;-76
2023/02/15 08:45:27;;;;;;;1999.90;999.90;;;2.80;99.90;;;;;;6737602;88;20262;-75
2023/02/15 08:55:27;;;;;;;1999.90;999.90;;;3.10;99.90;;;;;;6735978;88;20659;-76
2023/02/15 09:05:28;;;;;;;1999.90;999.90;;;3.30;99.90;;;;;;6735295;88;20704;-76
2023/02/15 09:15:28;;;;;;;1999.90;999.90;;;3.60;99.90;;;;;;6735201;88;20185;-76
2023/02/15 09:25:29;;;;;;;1999.90;999.90;;;4.00;99.90;;;;;;6734937;88;20314;-76
2023/02/15 09:35:29;;;;;;;1999.90;999.90;;;4.50;99.90;;;;;;6736665;88;20254;-76
2023/02/15 09:45:36;;;;;;;1999.90;999.90;;;4.80;99.90;;;;;;6738212;88;20814;-76
2023/02/15 09:56:01;;;;;;;1999.90;999.90;;;5.50;99.90;;;;;;6735331;88;20229;-75
2023/02/15 10:06:30;;;;;;;1999.90;999.90;;;5.70;99.90;;;;;;6733109;88;20220;-76
2023/02/15 10:17:13;;;;;;;1999.90;999.90;;;5.70;99.90;;;;;;6725422;88;20675;-76
2023/02/15 10:27:19;;;;;;;1999.90;999.90;;;5.70;99.90;;;;;;6717138;88;20652;-76
2023/02/15 10:37:20;;;;;;;;;;;6.20;99.90;;;;;;6731251;88;20534;-76
2023/02/15 10:47:35;;;;;;;1999.90;999.90;;;6.50;99.90;;;;;;6734052;88;20056;-76
2023/02/15 10:57:56;;;;;;;1999.90;999.90;;;6.80;99.90;;;;;;6737558;88;20236;-75
2023/02/15 11:07:59;;;;;;;1999.90;999.90;;;7.50;99.90;;;;;;6730887;88;20213;-76
2023/02/15 11:18:16;;;;;;;1999.90;999.90;;;7.60;99.90;;;;;;6732368;88;20347;-76
2023/02/15 11:28:30;;;;;;;1999.90;999.90;;;8.90;99.90;;;;;;6731635;88;20457;-77
2023/02/15 11:38:36;;;;;;;1999.90;999.90;;;8.40;99.90;;;;;;6728552;88;20272;-77
2023/02/15 11:48:36;;;;;;;1999.90;999.90;;;8.80;99.90;;;;;;6732639;88;20612;-76
2023/02/15 11:58:49;;;;;;;1999.90;999.90;;;9.10;99.90;;;;;;6740413;88;20196;-77
2023/02/15 12:09:12;;;;;;;1999.90;999.90;;;9.70;99.90;;;;;;6730721;88;20204;-77
2023/02/15 12:19:29;;;;;;;1999.90;999.90;;;10.50;99.90;;;;;;6744390;77;20201;-77
2023/02/15 12:29:40;;;;;;;1999.90;999.90;;;10.40;99.90;;;;;;6748703;88;20231;-81
2023/02/15 12:39:53;;;;;;;1999.90;999.90;;;10.30;99.90;;;;;;6753201;88;20588;-79
2023/02/15 12:50:22;;;;;;;1999.90;999.90;;;10.50;99.90;;;;;;6753232;88;20317;-80
2023/02/15 13:00:31;;;;;;;1999.90;999.90;;;11.10;99.90;;;;;;6753169;88;20274;-81
2023/02/15 13:10:36;;;;;;;1999.90;999.90;;;11.50;99.90;;;;;;6751267;88;20360;-79
2023/02/15 13:20:40;;;;;;;1999.90;999.90;;;11.90;99.90;;;;;;6749830;88;20215;-79
2023/02/15 13:30:47;;;;;;;1999.90;999.90;;;12.40;99.90;;;;;;6749396;88;20243;-79
2023/02/15 13:40:54;;;;;;;1999.90;999.90;;;12.20;99.90;;;;;;6751230;88;20251;-81
2023/02/15 13:51:35;;;;;;;1999.90;999.90;;;13.00;99.90;;;;;;6747451;88;20169;-80
2023/02/15 14:01:58;;;;;;;1999.90;999.90;;;14.90;99.80;;;;;;6751813;88;20177;-83
2023/02/15 14:12:09;;;;;;;1999.90;999.90;;;14.20;99.90;;;;;;6753167;88;20264;-81
2023/02/15 14:22:49;;;;;;;1999.90;999.90;;;13.50;99.90;;;;;;6753707;88;20224;-81
2023/02/15 14:32:54;;;;;;;1999.90;999.90;;;13.80;99.90;;;;;;6757200;88;20181;-82
2023/02/15 14:43:29;;;;;;;1999.90;999.90;;;12.90;99.90;;;;;;6759398;88;20188;-79
2023/02/15 14:53:30;;;;;;;1999.90;999.90;;;12.30;99.90;;;;;;6756898;88;20207;-79
2023/02/15 15:03:31;;;;;;;1999.90;999.90;;;12.00;99.90;;;;;;6753466;88;20635;-79
2023/02/15 15:13:32;;;;;;;1999.90;999.90;;;11.80;99.90;;;;;;6749865;88;20223;-80
2023/02/15 15:23:44;;;;;;;1999.90;999.90;;;11.40;99.90;;;;;;6749912;88;20302;-79
2023/02/15 15:34:03;;;;;;;1999.90;999.90;;;11.40;99.90;;;;;;6750197;88;20269;-79
2023/02/15 15:44:25;;;;;;;1999.90;999.90;;;11.10;99.90;;;;;;6747587;88;20205;-78
2023/02/15 15:54:27;;;;;;;1999.90;999.90;;;11.00;99.90;;;;;;6740953;88;20206;-79
2023/02/15 16:04:33;;;;;;;1999.90;999.90;;;11.00;99.90;;;;;;6741807;88;20224;-77
2023/02/15 16:14:39;;;;;;;1999.90;999.90;;;10.80;99.90;;;;;;6741142;88;20230;-78
2023/02/15 16:25:16;;;;;;;1999.90;999.90;;;10.70;99.90;;;;;;6740158;88;20777;-79
2023/02/15 16:35:17;;;;;;;;;;;10.50;99.90;;;;;;6741800;88;20700;-77
2023/02/15 16:45:22;;;;;;;1999.90;999.90;;;10.40;99.90;;;;;;6742506;88;20072;-79
2023/02/15 16:55:25;;;;;;;1999.90;999.90;;;10.10;99.90;;;;;;6742076;88;20199;-80
2023/02/15 17:05:46;;;;;;;1999.90;999.90;;;10.00;99.90;;;;;;6739140;88;20196;-78
2023/02/15 17:15:59;;;;;;;1999.90;999.90;;;9.80;99.90;;;;;;6743936;88;20262;-78
2023/02/15 17:26:10;;;;;;;1999.90;999.90;;;9.70;99.90;;;;;;6743475;88;20317;-78
2023/02/15 17:36:13;;;;;;;1999.90;999.90;;;9.50;99.90;;;;;;6745537;88;20174;-78
2023/02/15 17:46:15;;;;;;;1999.90;999.90;;;9.50;99.90;;;;;;6746997;88;20181;-80
2023/02/15 17:56:16;;;;;;;1999.90;999.90;;;9.30;99.90;;;;;;6757381;88;20764;-80
2023/02/15 18:16:42;;;;;;;1999.90;999.90;;;9.10;99.90;;;;;;6740806;78;20199;-77
2023/02/15 18:26:42;;;;;;;1999.90;999.90;;;8.90;99.90;;;;;;6717961;88;20182;-77
2023/02/15 18:36:44;;;;;;;1999.90;999.90;;;8.80;99.90;;;;;;6722382;88;20190;-78
2023/02/15 18:46:45;;;;;;;1999.90;999.90;;;8.60;99.90;;;;;;6719069;88;20169;-77
2023/02/15 18:56:51;;;;;;;1999.90;999.90;;;8.40;99.90;;;;;;6718269;88;20185;-77
2023/02/15 19:06:53;;;;;;;1999.90;999.90;;;8.30;99.90;;;;;;6717217;88;20218;-77
2023/02/15 19:16:55;;;;;;;1999.90;999.90;;;8.20;99.90;;;;;;6698826;88;20242;-77
2023/02/15 19:26:55;;;;;;;1999.90;999.90;;;8.10;99.90;;;;;;6702379;88;20220;-77
2023/02/15 19:36:56;;;;;;;1999.90;999.90;;;8.00;99.90;;;;;;6711925;88;20295;-77
2023/02/15 19:46:56;;;;;;;1999.90;999.90;;;7.80;99.90;;;;;;6712012;88;20788;-78
2023/02/15 19:56:57;;;;;;;1999.90;999.90;;;7.60;99.90;;;;;;6715021;88;20189;-78
2023/02/15 20:07:00;;;;;;;1999.90;999.90;;;7.50;99.90;;;;;;6725235;88;20647;-76
2023/02/15 20:17:00;;;;;;;1999.90;999.90;;;7.30;99.90;;;;;;6709376;88;20550;-77
2023/02/15 20:27:01;;;;;;;1999.90;999.90;;;7.30;99.90;;;;;;6705941;88;20775;-76
2023/02/15 20:37:02;;;;;;;1999.90;999.90;;;7.20;99.90;;;;;;6705081;88;20243;-76
2023/02/15 20:47:03;;;;;;;1999.90;999.90;;;7.10;99.90;;;;;;6701593;88;20201;-76
2023/02/15 20:57:05;;;;;;;1999.90;999.90;;;7.00;99.90;;;;;;6703177;88;20205;-76
2023/02/15 21:07:06;;;;;;;1999.90;999.90;;;6.90;99.90;;;;;;6702199;88;20525;-76
2023/02/15 21:17:10;;;;;;;1999.90;999.90;;;6.80;99.90;;;;;;6701139;88;20204;-76
2023/02/15 21:27:12;;;;;;;1999.90;999.90;;;6.70;99.90;;;;;;6701649;88;20980;-76
2023/02/15 21:37:30;;;;;;;1999.90;999.90;;;6.60;99.90;;;;;;6698252;88;20190;-77
2023/02/15 21:47:49;;;;;;;1999.90;999.90;;;6.50;99.90;;;;;;6702257;88;20225;-76
2023/02/15 21:57:50;;;;;;;1999.90;999.90;;;6.50;99.90;;;;;;6703002;88;20756;-76
2023/02/15 22:07:50;;;;;;;1999.90;999.90;;;6.60;99.90;;;;;;6704411;88;20257;-76
2023/02/15 22:17:52;;;;;;;1999.90;999.90;;;6.50;99.90;;;;;;6702841;88;20364;-77
2023/02/15 22:27:53;;;;;;;1999.90;999.90;;;6.30;99.90;;;;;;6702943;88;20313;-76
2023/02/15 22:37:54;;;;;;;1999.90;999.90;;;6.00;99.90;;;;;;6709756;88;20215;-76
2023/02/15 22:47:57;;;;;;;1999.90;999.90;;;5.90;99.90;;;;;;6698896;88;20191;-76
2023/02/15 22:57:58;;;;;;;1999.90;999.90;;;5.60;99.90;;;;;;6702054;88;20537;-76
2023/02/15 23:07:59;;;;;;;1999.90;999.90;;;5.40;99.90;;;;;;6702545;88;20189;-76
2023/02/15 23:18:10;;;;;;;1999.90;999.90;;;5.10;99.90;;;;;;6701918;88;20222;-75
2023/02/15 23:28:19;;;;;;;1999.90;999.90;;;5.10;99.90;;;;;;6703036;88;20843;-75
2023/02/15 23:38:22;;;;;;;1999.90;999.90;;;5.00;99.90;;;;;;6703707;88;20216;-76
2023/02/15 23:48:32;;;;;;;1999.90;999.90;;;5.00;99.90;;;;;;6703533;88;20590;-76
2023/02/15 23:58:37;;;;;;;1999.90;999.90;;;4.90;99.90;;;;;;6703921;88;20199;-76
